Time;durP1;ratioP1;P1;durP2;ratioP2;P2;SDS_P1;SDS_P2;PMS_P1;PMS_P2;Temp;Humidity;BMP_temperature;BMP_pressure;BME280_temperature;BME280_humidity;BME280_pressure;Samples;Min_cycle;Max_cycle;Signal;HPM_P1;HPM_P2
2022/03/07 00:01:25;;;;;;;9.73;8.05;;;;;;;2.38;62.24;98643.03;4126010;28;20213;-81
2022/03/07 00:03:28;;;;;;;11.85;8.68;;;;;;;2.39;62.35;98648.16;4155298;28;20637;-82
2022/03/07 00:05:35;;;;;;;10.55;8.32;;;;;;;2.31;62.81;98651.81;4158588;28;20334;-83
2022/03/07 00:07:38;;;;;;;11.85;9.38;;;;;;;2.30;62.24;98646.69;4141205;28;20237;-81
2022/03/07 00:09:41;;;;;;;10.13;8.65;;;;;;;2.27;62.92;98644.22;4141222;28;20582;-81
2022/03/07 00:11:44;;;;;;;10.43;8.38;;;;;;;2.26;63.12;98637.41;4141551;28;20675;-81
2022/03/07 00:13:47;;;;;;;11.85;8.55;;;;;;;2.27;62.62;98649.34;4143451;28;20579;-81
2022/03/07 00:15:50;;;;;;;10.73;8.15;;;;;;;2.29;62.77;98650.19;4138998;28;20208;-81
2022/03/07 00:17:53;;;;;;;11.60;9.25;;;;;;;2.32;62.64;98650.09;4138891;28;20216;-81
2022/03/07 00:19:56;;;;;;;10.18;8.77;;;;;;;2.27;62.87;98649.34;4141118;28;20208;-81
2022/03/07 00:22:01;;;;;;;9.75;8.23;;;;;;;2.27;62.55;98645.06;4141136;28;20211;-81
2022/03/07 00:24:04;;;;;;;14.35;9.15;;;;;;;2.27;63.06;98649.34;4142116;28;20238;-81
2022/03/07 00:26:08;;;;;;;12.25;8.57;;;;;;;2.24;62.65;98652.00;4134576;28;20203;-81
2022/03/07 00:28:11;;;;;;;10.40;8.27;;;;;;;2.30;62.31;98654.41;4140119;28;20200;-81
2022/03/07 00:30:15;;;;;;;10.20;8.50;;;;;;;2.24;61.82;98652.88;4124836;28;20204;-81
2022/03/07 00:32:18;;;;;;;10.02;8.07;;;;;;;2.18;62.30;98655.59;4139349;28;20196;-81
2022/03/07 00:34:21;;;;;;;11.35;8.30;;;;;;;2.14;61.64;98653.16;4142890;28;20219;-81
2022/03/07 00:36:25;;;;;;;9.77;7.88;;;;;;;1.98;61.14;98650.13;4141961;28;20215;-81
2022/03/07 00:38:30;;;;;;;12.65;9.23;;;;;;;1.99;61.95;98658.69;4137887;28;20211;-81
2022/03/07 00:40:33;;;;;;;10.13;8.68;;;;;;;1.87;61.61;98659.00;4141495;28;20214;-80
2022/03/07 00:42:37;;;;;;;11.13;8.60;;;;;;;1.90;61.66;98661.50;4141175;28;20259;-81
2022/03/07 00:44:40;;;;;;;10.18;8.32;;;;;;;1.89;61.55;98654.66;4156986;28;20207;-81
2022/03/07 00:46:45;;;;;;;10.23;8.80;;;;;;;1.85;61.01;98655.63;4141256;28;20199;-80
2022/03/07 00:48:48;;;;;;;12.73;7.90;;;;;;;1.85;61.19;98659.91;4121989;28;20251;-81
2022/03/07 00:50:52;;;;;;;13.07;8.35;;;;;;;1.84;61.19;98656.50;4143315;28;20225;-81
2022/03/07 00:52:55;;;;;;;10.15;8.10;;;;;;;1.76;61.60;98660.13;4157795;28;20227;-80
2022/03/07 00:55:00;;;;;;;9.70;8.27;;;;;;;1.78;61.23;98659.22;4137749;28;20246;-81
2022/03/07 00:57:04;;;;;;;10.02;8.23;;;;;;;1.82;61.72;98660.84;4143669;28;20288;-82
2022/03/07 00:59:09;;;;;;;9.90;8.15;;;;;;;1.73;61.36;98666.22;4139212;28;20239;-81
2022/03/07 01:01:13;;;;;;;10.20;8.43;;;;;;;1.75;61.58;98664.44;4139722;28;20630;-81
2022/03/07 01:03:18;;;;;;;10.88;9.45;;;;;;;1.70;61.33;98662.84;4134661;28;20266;-80
2022/03/07 01:05:22;;;;;;;10.13;7.82;;;;;;;1.69;62.16;98659.44;4125162;28;20641;-80
2022/03/07 01:07:25;;;;;;;11.00;8.32;;;;;;;1.68;61.81;98652.63;4138432;28;20208;-81
2022/03/07 01:09:28;;;;;;;13.23;9.18;;;;;;;1.67;62.00;98653.53;4140836;28;20200;-81
2022/03/07 01:11:32;;;;;;;10.93;8.70;;;;;;;1.64;62.29;98653.59;4140717;28;20203;-81
2022/03/07 01:13:35;;;;;;;10.27;8.05;;;;;;;1.61;62.33;98661.38;4137955;28;20676;-81
2022/03/07 01:15:38;;;;;;;12.73;9.30;;;;;;;1.65;62.57;98654.44;4124137;28;20270;-81
2022/03/07 01:17:41;;;;;;;11.52;9.48;;;;;;;1.61;63.18;98651.09;4134742;28;20214;-81
2022/03/07 01:19:44;;;;;;;11.07;8.40;;;;;;;1.59;63.05;98652.84;4137569;28;20283;-81
2022/03/07 01:21:47;;;;;;;12.40;9.75;;;;;;;1.62;63.08;98649.38;4156546;28;20309;-81
2022/03/07 01:23:52;;;;;;;13.07;10.02;;;;;;;1.50;63.11;98652.22;4141609;28;20242;-81
2022/03/07 01:25:55;;;;;;;12.73;9.38;;;;;;;1.50;63.83;98647.09;4136843;28;20208;-81
2022/03/07 01:28:00;;;;;;;13.43;9.90;;;;;;;1.52;63.52;98651.31;4141498;28;20622;-81
2022/03/07 01:30:05;;;;;;;12.75;9.70;;;;;;;1.48;63.51;98647.13;4137608;28;20215;-81
2022/03/07 01:32:08;;;;;;;11.15;9.50;;;;;;;1.42;63.57;98644.69;4142059;28;20587;-81
2022/03/07 01:34:13;;;;;;;12.88;9.18;;;;;;;1.39;63.83;98644.78;4141305;28;20710;-81
2022/03/07 01:36:17;;;;;;;10.77;9.02;;;;;;;1.36;63.55;98648.31;4138749;28;20203;-80
2022/03/07 01:38:20;;;;;;;11.80;9.02;;;;;;;1.36;63.36;98641.44;4123148;28;20211;-81
2022/03/07 01:40:23;;;;;;;12.90;9.90;;;;;;;1.35;63.06;98646.63;4139893;28;20231;-81
2022/03/07 01:42:28;;;;;;;12.07;9.57;;;;;;;1.31;63.76;98644.97;4142991;28;20231;-80
2022/03/07 01:44:35;;;;;;;13.20;10.07;;;;;;;1.24;62.91;98643.47;4140219;28;20715;-81
2022/03/07 01:46:38;;;;;;;14.50;10.05;;;;;;;1.27;62.19;98633.94;4123907;28;20308;-81
2022/03/07 01:48:44;;;;;;;13.15;9.70;;;;;;;1.24;62.00;98640.88;4124272;28;20232;-81
2022/03/07 01:50:48;;;;;;;12.85;10.60;;;;;;;1.19;60.86;98637.56;4140345;28;20285;-80
2022/03/07 01:52:53;;;;;;;12.15;9.45;;;;;;;1.19;61.24;98635.84;4139618;28;20319;-81
2022/03/07 01:54:57;;;;;;;12.65;9.30;;;;;;;1.19;61.60;98632.44;4141524;28;20609;-82
2022/03/07 01:57:04;;;;;;;12.27;9.65;;;;;;;1.09;60.81;98628.41;4140392;28;20212;-82
2022/03/07 01:59:11;;;;;;;11.88;9.38;;;;;;;1.12;61.34;98625.75;4143389;28;20219;-81
2022/03/07 02:01:16;;;;;;;14.30;9.82;;;;;;;1.14;61.38;98626.56;4123601;28;20199;-82
2022/03/07 02:03:19;;;;;;;15.93;10.55;;;;;;;1.12;61.18;98625.75;4119419;28;20212;-81
2022/03/07 02:05:24;;;;;;;13.52;10.00;;;;;;;1.16;61.13;98623.09;4152349;28;20337;-81
2022/03/07 02:07:33;;;;;;;13.50;9.63;;;;;;;1.17;61.26;98622.19;4153713;28;20261;-81
2022/03/07 02:09:36;;;;;;;14.43;10.30;;;;;;;1.09;61.27;98618.13;4124353;28;20609;-82
2022/03/07 02:11:39;;;;;;;14.18;10.57;;;;;;;1.05;61.25;98611.38;4137632;28;20722;-81
2022/03/07 02:13:45;;;;;;;13.60;10.57;;;;;;;1.10;61.76;98614.69;4138699;28;20223;-82
2022/03/07 02:15:55;;;;;;;13.55;10.32;;;;;;;1.06;61.51;98613.91;4154243;28;20202;-81
2022/03/07 02:18:03;;;;;;;13.70;10.00;;;;;;;1.02;61.67;98614.88;4122914;28;20212;-80
2022/03/07 02:20:07;;;;;;;14.52;10.10;;;;;;;1.00;61.51;98610.63;4140213;28;20703;-82
2022/03/07 02:22:15;;;;;;;13.15;10.30;;;;;;;0.98;61.75;98613.22;4123673;28;20196;-80
2022/03/07 02:24:21;;;;;;;14.05;10.15;;;;;;;1.14;61.78;98603.44;4151787;28;20290;-81
2022/03/07 02:26:30;;;;;;;17.15;11.50;;;;;;;1.04;61.83;98607.97;4140119;28;20198;-81
2022/03/07 02:28:33;;;;;;;14.10;10.80;;;;;;;1.05;61.81;98609.66;4125256;28;20688;-80
2022/03/07 02:30:37;;;;;;;13.60;10.23;;;;;;;1.03;61.72;98608.00;4122505;28;20217;-81
2022/03/07 02:32:41;;;;;;;18.20;10.93;;;;;;;1.06;62.07;98607.94;4140408;28;20480;-81
2022/03/07 02:34:44;;;;;;;15.68;11.07;;;;;;;1.00;62.14;98613.19;4144134;28;21184;-82
2022/03/07 02:36:50;;;;;;;15.75;11.48;;;;;;;0.98;62.07;98615.81;4144910;28;20729;-81
2022/03/07 02:38:56;;;;;;;15.25;10.93;;;;;;;0.96;62.75;98614.13;4144553;28;20655;-81
2022/03/07 02:41:02;;;;;;;16.92;10.95;;;;;;;0.95;62.35;98603.03;4143442;28;20730;-82
2022/03/07 02:43:05;;;;;;;13.73;10.57;;;;;;;0.92;62.47;98607.41;4142889;28;20214;-81
2022/03/07 02:45:10;;;;;;;16.75;12.05;;;;;;;0.91;62.61;98605.72;4141136;28;20207;-81
2022/03/07 02:47:14;;;;;;;15.10;10.50;;;;;;;0.93;63.09;98602.25;4141546;28;20658;-81
2022/03/07 02:49:19;;;;;;;16.02;10.90;;;;;;;0.96;62.42;98603.88;4154827;28;20292;-81
2022/03/07 02:51:25;;;;;;;15.48;10.65;;;;;;;0.94;63.05;98600.50;4142349;28;20203;-81
2022/03/07 02:53:29;;;;;;;15.35;11.15;;;;;;;0.97;62.88;98595.31;4142013;28;20204;-82
2022/03/07 02:55:33;;;;;;;12.27;9.93;;;;;;;0.97;63.20;98606.41;4126503;28;20220;-81
2022/03/07 02:57:36;;;;;;;15.85;11.07;;;;;;;0.90;63.10;98596.31;4142484;28;20211;-81
2022/03/07 02:59:39;;;;;;;13.93;10.73;;;;;;;0.89;63.31;98598.91;4136980;28;20200;-81
2022/03/07 03:01:44;;;;;;;18.73;11.63;;;;;;;0.87;63.20;98601.50;4139351;28;20699;-81
2022/03/07 03:03:47;;;;;;;16.05;11.80;;;;;;;0.88;63.24;98602.38;4143751;28;20254;-81
2022/03/07 03:05:54;;;;;;;15.60;11.52;;;;;;;0.89;63.24;98609.19;4144926;28;20577;-81
2022/03/07 03:07:57;;;;;;;15.90;10.85;;;;;;;0.92;63.39;98607.41;4142113;28;20220;-82
2022/03/07 03:10:00;;;;;;;14.57;11.02;;;;;;;0.89;63.51;98606.59;4137333;28;20203;-81
2022/03/07 03:12:07;;;;;;;13.80;10.38;;;;;;;0.90;63.83;98600.59;4140716;28;20199;-81
2022/03/07 03:14:10;;;;;;;14.77;10.32;;;;;;;0.92;63.84;98604.84;4141133;28;20227;-81
2022/03/07 03:16:13;;;;;;;16.42;11.32;;;;;;;0.86;63.58;98597.28;4143212;28;20829;-81
2022/03/07 03:18:16;;;;;;;14.10;10.65;;;;;;;0.88;64.00;98605.78;4140098;28;20202;-81
2022/03/07 03:20:19;;;;;;;15.32;11.30;;;;;;;0.78;64.04;98604.28;4124770;28;20208;-80
2022/03/07 03:22:22;;;;;;;16.20;11.20;;;;;;;0.73;64.32;98606.09;4140080;28;20204;-81
2022/03/07 03:24:25;;;;;;;16.55;11.18;;;;;;;0.70;64.74;98601.03;4140398;28;20231;-81
2022/03/07 03:26:29;;;;;;;19.55;12.05;;;;;;;0.72;64.85;98608.72;4144113;28;20751;-81
2022/03/07 03:28:34;;;;;;;17.85;11.73;;;;;;;0.74;65.05;98604.41;4138222;28;20205;-81
2022/03/07 03:30:37;;;;;;;16.20;11.10;;;;;;;0.70;65.55;98619.00;4127360;28;20212;-80
2022/03/07 03:32:40;;;;;;;16.75;10.95;;;;;;;0.65;65.52;98605.44;4145333;28;20218;-82
2022/03/07 03:34:44;;;;;;;14.93;11.88;;;;;;;0.63;65.65;98612.34;4139306;28;20220;-81
2022/03/07 03:36:47;;;;;;;16.17;11.30;;;;;;;0.66;66.18;98614.84;4143454;28;20266;-81
2022/03/07 03:38:50;;;;;;;19.13;12.45;;;;;;;0.64;66.19;98616.56;4140114;28;20432;-82
2022/03/07 03:40:53;;;;;;;18.40;11.68;;;;;;;0.64;66.28;98614.00;4140677;28;20977;-81
2022/03/07 03:42:56;;;;;;;15.07;11.00;;;;;;;0.68;66.25;98607.94;4142679;28;20211;-81
2022/03/07 03:45:00;;;;;;;16.50;12.00;;;;;;;0.65;66.69;98615.69;4143837;28;20203;-82
2022/03/07 03:47:04;;;;;;;18.30;11.25;;;;;;;0.70;66.79;98621.56;4140518;28;20619;-81
2022/03/07 03:49:08;;;;;;;17.70;12.55;;;;;;;0.69;67.12;98626.72;4141578;28;20280;-80
2022/03/07 03:51:11;;;;;;;15.48;11.50;;;;;;;0.70;66.85;98624.13;4142613;28;20191;-81
2022/03/07 03:53:14;;;;;;;15.07;11.27;;;;;;;0.75;67.12;98627.47;4141052;28;20699;-81
2022/03/07 03:55:17;;;;;;;16.98;11.88;;;;;;;0.70;67.30;98626.69;4141652;28;20223;-82
2022/03/07 03:57:20;;;;;;;17.55;11.48;;;;;;;0.80;67.25;98617.06;4138233;28;20398;-81
2022/03/07 03:59:23;;;;;;;15.82;11.18;;;;;;;0.80;67.00;98619.63;4138963;28;20204;-80
2022/03/07 04:01:28;;;;;;;15.38;11.20;;;;;;;0.72;67.89;98621.53;4137280;28;20239;-81
2022/03/07 04:03:31;;;;;;;13.73;11.20;;;;;;;0.65;68.26;98631.09;4139194;28;20606;-81
2022/03/07 04:05:34;;;;;;;16.02;11.63;;;;;;;0.71;67.78;98625.84;4140976;28;20282;-81
2022/03/07 04:07:37;;;;;;;14.18;10.50;;;;;;;0.76;68.16;98620.59;4139236;28;20234;-81
2022/03/07 04:09:40;;;;;;;16.80;10.95;;;;;;;0.78;67.77;98626.53;4139617;28;20204;-80
2022/03/07 04:11:43;;;;;;;14.50;10.25;;;;;;;0.78;67.91;98627.38;4139840;28;20207;-81
2022/03/07 04:13:46;;;;;;;15.05;10.80;;;;;;;0.74;68.52;98625.78;4140488;28;20204;-82
2022/03/07 04:15:49;;;;;;;15.00;11.35;;;;;;;0.74;68.79;98630.06;4126721;28;20227;-80
2022/03/07 04:17:55;;;;;;;13.77;10.30;;;;;;;0.62;68.98;98631.16;4123018;28;20255;-81
2022/03/07 04:20:02;;;;;;;14.93;10.95;;;;;;;0.69;69.09;98632.72;4141281;28;20699;-81
2022/03/07 04:22:06;;;;;;;13.18;10.20;;;;;;;0.69;68.70;98630.16;4143590;28;20212;-81
2022/03/07 04:24:11;;;;;;;15.48;10.52;;;;;;;0.66;69.22;98627.66;4141531;28;20208;-82
2022/03/07 04:26:17;;;;;;;15.43;10.38;;;;;;;0.69;68.71;98632.72;4137596;28;20242;-81
2022/03/07 04:28:20;;;;;;;12.65;9.63;;;;;;;0.59;69.20;98631.22;4140240;28;20277;-81
2022/03/07 04:30:23;;;;;;;13.55;10.27;;;;;;;0.60;69.12;98632.91;4156925;28;20219;-81
2022/03/07 04:32:26;;;;;;;13.50;9.65;;;;;;;0.56;69.57;98633.84;4124645;28;20295;-81
2022/03/07 04:34:31;;;;;;;15.95;10.32;;;;;;;0.53;69.85;98630.50;4138930;28;20289;-81
2022/03/07 04:36:34;;;;;;;14.43;9.45;;;;;;;0.52;69.85;98624.50;4137312;28;20248;-81
2022/03/07 04:38:37;;;;;;;12.82;9.57;;;;;;;0.50;69.64;98628.84;4120496;28;20263;-81
2022/03/07 04:40:40;;;;;;;12.88;9.50;;;;;;;0.52;69.96;98634.78;4140737;28;20216;-80
2022/03/07 04:42:46;;;;;;;13.90;9.85;;;;;;;0.47;70.21;98635.75;4139233;28;20207;-80
2022/03/07 04:44:49;;;;;;;12.45;9.20;;;;;;;0.47;70.25;98644.28;4141640;28;20254;-82
2022/03/07 04:46:52;;;;;;;13.98;9.80;;;;;;;0.50;70.03;98645.97;4119638;28;21229;-80
2022/03/07 04:48:55;;;;;;;12.90;9.18;;;;;;;0.42;69.91;98646.97;4142796;28;20199;-81
2022/03/07 04:50:59;;;;;;;12.80;9.77;;;;;;;0.47;69.68;98657.13;4141722;28;20208;-80
2022/03/07 04:53:03;;;;;;;14.25;10.25;;;;;;;0.46;70.05;98652.84;4141621;28;20207;-80
2022/03/07 04:55:07;;;;;;;13.82;8.75;;;;;;;0.49;70.12;98647.66;4139765;28;20199;-80
2022/03/07 04:57:10;;;;;;;12.25;9.45;;;;;;;0.43;70.37;98644.38;4142430;28;20207;-80
2022/03/07 04:59:14;;;;;;;10.95;8.88;;;;;;;0.48;69.95;98643.44;4138009;28;20242;-81
2022/03/07 05:01:17;;;;;;;13.35;10.38;;;;;;;0.53;70.07;98646.72;4138111;28;20242;-80
2022/03/07 05:03:20;;;;;;;13.50;9.20;;;;;;;0.57;69.67;98656.06;4139582;28;20246;-80
2022/03/07 05:05:23;;;;;;;16.20;9.30;;;;;;;0.55;69.52;98639.84;4137457;28;20949;-79
2022/03/07 05:07:28;;;;;;;12.32;9.15;;;;;;;0.51;70.00;98652.75;4139572;28;20208;-81
2022/03/07 05:09:31;;;;;;;11.43;8.98;;;;;;;0.46;70.25;98653.75;4140326;28;20207;-80
2022/03/07 05:11:35;;;;;;;15.05;10.30;;;;;;;0.51;70.05;98647.63;4122648;28;20724;-81
2022/03/07 05:13:39;;;;;;;12.65;9.05;;;;;;;0.47;70.07;98667.38;4137554;28;20223;-80
2022/03/07 05:15:42;;;;;;;12.00;8.82;;;;;;;0.45;69.90;98662.31;4140992;28;20230;-80
2022/03/07 05:17:46;;;;;;;13.02;8.93;;;;;;;0.45;69.89;98652.88;4140262;28;20203;-81
2022/03/07 05:19:50;;;;;;;16.38;9.35;;;;;;;0.46;69.33;98655.41;4137479;28;20269;-81
2022/03/07 05:21:53;;;;;;;13.13;9.50;;;;;;;0.46;69.90;98659.72;4140475;28;20216;-81
2022/03/07 05:23:58;;;;;;;14.00;8.70;;;;;;;0.48;69.34;98658.81;4123738;28;20204;-80
2022/03/07 05:26:01;;;;;;;11.70;8.82;;;;;;;0.43;69.90;98666.63;4136673;28;20202;-80
2022/03/07 05:28:05;;;;;;;11.52;9.05;;;;;;;0.36;69.76;98662.47;4122553;28;20258;-80
2022/03/07 05:30:09;;;;;;;15.10;9.13;;;;;;;0.38;69.68;98660.75;4138631;28;20246;-81
2022/03/07 05:32:12;;;;;;;15.13;9.95;;;;;;;0.41;69.51;98665.78;4140830;28;20299;-81
2022/03/07 05:34:15;;;;;;;13.38;9.18;;;;;;;0.35;69.44;98666.78;4140200;28;20207;-81
2022/03/07 05:36:18;;;;;;;12.43;8.77;;;;;;;0.33;69.55;98670.22;4138800;28;20270;-81
2022/03/07 05:38:22;;;;;;;14.95;9.45;;;;;;;0.32;69.66;98669.41;4123024;28;21142;-81
2022/03/07 05:40:26;;;;;;;13.70;9.45;;;;;;;0.23;69.42;98671.31;4125764;28;20303;-81
2022/03/07 05:42:29;;;;;;;13.35;9.55;;;;;;;0.22;69.89;98667.88;4135808;28;20212;-83
2022/03/07 05:44:32;;;;;;;12.52;9.50;;;;;;;0.26;69.33;98672.06;4139311;28;20222;-84
2022/03/07 05:46:35;;;;;;;12.77;9.45;;;;;;;0.27;69.28;98678.03;4142765;28;20670;-81
2022/03/07 05:48:39;;;;;;;12.75;9.52;;;;;;;0.29;69.11;98681.44;4140416;28;20734;-82
2022/03/07 05:50:42;;;;;;;13.35;9.07;;;;;;;0.27;69.44;98678.91;4141149;28;20235;-81
2022/03/07 05:52:45;;;;;;;13.65;9.70;;;;;;;0.26;69.20;98682.34;4134435;28;20207;-82
2022/03/07 05:54:48;;;;;;;12.10;9.15;;;;;;;0.27;69.04;98683.16;4138512;28;20711;-81
2022/03/07 05:56:52;;;;;;;12.45;8.60;;;;;;;0.24;69.06;98678.97;4123731;28;20224;-82
2022/03/07 05:58:55;;;;;;;11.88;8.57;;;;;;;0.26;69.39;98681.50;4140745;28;20238;-83
2022/03/07 06:00:58;;;;;;;11.70;8.30;;;;;;;0.29;69.06;98679.72;4135941;28;20208;-81
2022/03/07 06:03:02;;;;;;;11.05;7.80;;;;;;;0.34;68.80;98680.47;4136122;28;20629;-81
2022/03/07 06:05:06;;;;;;;11.70;8.63;;;;;;;0.34;68.66;98689.88;4125905;28;20335;-81
2022/03/07 06:07:09;;;;;;;12.05;9.77;;;;;;;0.38;68.77;98683.84;4143755;28;21104;-82
2022/03/07 06:09:12;;;;;;;12.88;8.80;;;;;;;0.47;68.28;98689.63;4142826;28;20219;-82
2022/03/07 06:11:15;;;;;;;10.20;7.40;;;;;;;0.52;68.50;98691.19;4122754;28;20220;-81
2022/03/07 06:13:20;;;;;;;12.48;8.35;;;;;;;0.57;68.23;98681.72;4140763;28;20846;-81
2022/03/07 06:15:23;;;;;;;12.18;8.30;;;;;;;0.67;67.75;98685.78;4125898;28;20247;-82
2022/03/07 06:17:29;;;;;;;11.00;8.13;;;;;;;0.70;67.27;98679.75;4158033;28;20219;-80
2022/03/07 06:19:32;;;;;;;13.30;8.93;;;;;;;0.59;67.90;98686.81;4156058;28;20647;-83
2022/03/07 06:21:35;;;;;;;11.02;7.93;;;;;;;0.65;67.52;98677.28;4126167;28;20251;-85
2022/03/07 06:23:39;;;;;;;14.05;9.00;;;;;;;0.68;67.57;98682.34;4141733;28;20211;-80
2022/03/07 06:25:42;;;;;;;9.43;7.15;;;;;;;0.67;67.77;98692.63;4141010;28;20214;-79
2022/03/07 06:27:46;;;;;;;12.77;8.50;;;;;;;0.61;67.37;98685.88;4146797;28;20201;-79
2022/03/07 06:29:50;;;;;;;9.52;7.18;;;;;;;0.63;67.76;98698.69;4141069;28;20204;-79
2022/03/07 06:31:53;;;;;;;11.30;8.07;;;;;;;0.49;67.58;98691.25;4139454;28;20262;-80
2022/03/07 06:33:56;;;;;;;11.57;7.95;;;;;;;0.49;67.86;98696.38;4144364;28;20234;-80
2022/03/07 06:36:00;;;;;;;11.25;7.97;;;;;;;0.45;67.95;98693.09;4145826;28;20258;-80
2022/03/07 06:38:03;;;;;;;11.75;8.07;;;;;;;0.47;68.19;98695.59;4140183;28;20905;-79
2022/03/07 06:40:07;;;;;;;12.20;7.20;;;;;;;0.44;68.38;98693.94;4147040;28;20214;-79
2022/03/07 06:42:11;;;;;;;12.88;8.52;;;;;;;0.31;68.63;98685.66;4143152;28;20207;-77
2022/03/07 06:44:14;;;;;;;11.98;8.18;;;;;;;0.34;68.69;98689.88;4143364;28;20211;-78
2022/03/07 06:46:19;;;;;;;10.95;7.97;;;;;;;0.25;69.01;98690.06;4156335;28;20265;-79
2022/03/07 06:48:22;;;;;;;11.85;7.97;;;;;;;0.28;69.26;98695.13;4140917;28;20199;-78
2022/03/07 06:50:27;;;;;;;12.70;8.75;;;;;;;0.26;69.22;98689.19;4139242;28;20235;-79
2022/03/07 06:52:30;;;;;;;13.90;8.82;;;;;;;0.32;69.39;98694.22;4123476;28;20230;-78
2022/03/07 06:54:34;;;;;;;11.57;7.95;;;;;;;0.36;68.91;98693.25;4126658;28;20200;-80
2022/03/07 06:56:37;;;;;;;13.02;8.50;;;;;;;0.32;69.18;98702.72;4143266;28;20642;-80
2022/03/07 06:58:41;;;;;;;13.27;9.20;;;;;;;0.30;69.27;98701.06;4133140;28;20226;-78
2022/03/07 07:00:49;;;;;;;12.40;9.45;;;;;;;0.34;69.66;98706.09;4143221;28;20217;-76
2022/03/07 07:02:54;;;;;;;12.73;9.20;;;;;;;0.31;69.57;98706.16;4127962;28;20619;-79
2022/03/07 07:04:58;;;;;;;15.00;9.88;;;;;;;0.29;70.03;98713.03;4121106;28;20213;-82
2022/03/07 07:07:04;;;;;;;13.68;8.77;;;;;;;0.26;70.04;98712.25;4145455;28;20251;-81
2022/03/07 07:09:07;;;;;;;15.63;10.45;;;;;;;0.29;69.90;98718.16;4127710;28;20219;-81
2022/03/07 07:11:10;;;;;;;19.25;9.63;;;;;;;0.33;69.99;98735.22;4135859;28;20262;-82
2022/03/07 07:13:15;;;;;;;12.35;9.35;;;;;;;0.42;70.06;98736.72;4124766;28;20859;-82
2022/03/07 07:15:19;;;;;;;14.23;10.18;;;;;;;0.54;69.97;98735.66;4139217;28;20212;-81
2022/03/07 07:17:22;;;;;;;15.32;8.63;;;;;;;0.91;69.27;98753.72;4142387;28;20279;-80
2022/03/07 07:19:26;;;;;;;13.13;8.75;;;;;;;1.29;68.29;98745.19;4144176;28;20200;-82
2022/03/07 07:21:29;;;;;;;14.10;9.60;;;;;;;1.64;67.33;98751.25;4140739;28;20212;-79
2022/03/07 07:23:32;;;;;;;12.60;8.48;;;;;;;1.89;66.55;98747.19;4145115;28;20723;-79
2022/03/07 07:25:36;;;;;;;14.57;10.13;;;;;;;2.16;65.71;98746.53;4138352;28;20739;-79
2022/03/07 07:27:39;;;;;;;13.52;8.73;;;;;;;2.20;65.82;98741.28;4144428;28;20659;-79
2022/03/07 07:29:42;;;;;;;13.30;9.50;;;;;;;2.28;65.33;98741.91;4124796;28;20219;-80
2022/03/07 07:31:47;;;;;;;16.25;9.60;;;;;;;2.54;64.82;98740.38;4128388;28;20333;-79
2022/03/07 07:33:50;;;;;;;14.40;10.40;;;;;;;2.71;64.32;98757.94;4129285;28;20201;-79
2022/03/07 07:35:54;;;;;;;14.75;9.85;;;;;;;2.78;64.07;98744.84;4142262;28;20207;-78
2022/03/07 07:37:57;;;;;;;13.10;9.88;;;;;;;2.80;64.03;98754.22;4141851;28;20248;-80
2022/03/07 07:40:00;;;;;;;12.95;10.15;;;;;;;2.95;63.48;98740.09;4140124;28;20307;-83
2022/03/07 07:42:05;;;;;;;13.75;9.95;;;;;;;2.99;63.94;98746.81;4133972;28;20676;-82
2022/03/07 07:44:15;;;;;;;17.05;10.77;;;;;;;3.07;63.25;98739.75;4142801;28;20227;-81
2022/03/07 07:46:19;;;;;;;13.32;9.43;;;;;;;3.39;62.96;98750.78;4145036;28;20204;-82
2022/03/07 07:48:22;;;;;;;15.48;10.55;;;;;;;3.59;63.20;98754.44;4139862;28;20266;-82
2022/03/07 07:50:26;;;;;;;13.38;10.50;;;;;;;3.80;62.12;98762.38;4140782;28;20234;-82
2022/03/07 07:52:30;;;;;;;11.85;9.63;;;;;;;3.95;61.65;98755.88;4140905;28;20691;-82
2022/03/07 07:54:34;;;;;;;14.13;9.30;;;;;;;4.04;61.67;98759.00;4138579;28;20271;-79
2022/03/07 07:56:37;;;;;;;13.68;11.30;;;;;;;4.20;61.70;98771.38;4143649;28;20235;-78
2022/03/07 07:58:40;;;;;;;14.77;10.65;;;;;;;4.20;60.08;98767.13;4124065;28;20224;-80
2022/03/07 08:00:43;;;;;;;18.85;11.38;;;;;;;4.21;60.71;98773.06;4142874;28;20205;-79
2022/03/07 08:02:47;;;;;;;15.55;9.60;;;;;;;4.21;61.24;98774.81;4140944;28;20232;-78
2022/03/07 08:04:51;;;;;;;17.40;10.57;;;;;;;4.37;60.58;98781.16;4140916;28;20200;-81
2022/03/07 08:06:58;;;;;;;18.38;11.18;;;;;;;4.27;59.49;98780.63;4144214;28;20229;-81
2022/03/07 08:09:04;;;;;;;15.30;11.15;;;;;;;4.28;60.54;98777.16;4144852;28;20213;-81
2022/03/07 08:11:07;;;;;;;14.30;10.70;;;;;;;4.66;60.21;98778.44;4138783;28;20380;-81
2022/03/07 08:13:10;;;;;;;15.60;10.90;;;;;;;4.84;59.45;98776.91;4136264;28;20207;-81
2022/03/07 08:15:13;;;;;;;13.40;9.73;;;;;;;4.92;58.78;98786.97;4153160;28;20204;-82
2022/03/07 08:17:16;;;;;;;15.05;10.73;;;;;;;4.68;58.33;98777.50;4136924;28;20287;-81
2022/03/07 08:19:19;;;;;;;14.60;10.60;;;;;;;4.67;58.11;98782.72;4129029;28;20304;-81
2022/03/07 08:21:25;;;;;;;15.68;11.77;;;;;;;4.86;59.23;98782.03;4154651;28;20294;-80
2022/03/07 08:23:29;;;;;;;37.05;19.83;;;;;;;4.86;58.36;98782.03;4140081;28;20209;-81
2022/03/07 08:25:33;;;;;;;461.52;115.88;;;;;;;5.04;58.28;98771.06;4143230;28;20243;-81
2022/03/07 08:27:36;;;;;;;16.75;11.52;;;;;;;4.68;57.84;98787.00;4141368;28;20274;-79
2022/03/07 08:29:39;;;;;;;37.10;18.52;;;;;;;4.52;59.47;98781.47;4144613;28;20208;-81
2022/03/07 08:31:42;;;;;;;156.77;74.82;;;;;;;4.82;58.00;98786.44;4127763;28;20213;-80
2022/03/07 08:33:46;;;;;;;14.90;10.80;;;;;;;4.81;56.11;98784.78;4143437;28;20211;-80
2022/03/07 08:35:50;;;;;;;16.85;11.90;;;;;;;4.83;56.92;98788.13;4143248;28;20248;-81
2022/03/07 08:37:54;;;;;;;18.50;11.45;;;;;;;4.77;56.66;98785.75;4143114;28;20256;-79
2022/03/07 08:39:57;;;;;;;17.92;11.43;;;;;;;4.87;57.83;98794.03;4143413;28;20212;-81
2022/03/07 08:42:02;;;;;;;14.85;11.55;;;;;;;4.86;56.46;98792.38;4144470;28;20242;-80
2022/03/07 08:44:05;;;;;;;16.23;11.23;;;;;;;4.82;56.79;98788.19;4142247;28;20222;-81
2022/03/07 08:46:09;;;;;;;219.10;98.05;;;;;;;4.85;57.39;98795.84;4142363;28;20275;-80
2022/03/07 08:48:12;;;;;;;20.85;13.75;;;;;;;5.03;58.07;98795.19;4144190;28;20218;-80
2022/03/07 08:50:18;;;;;;;15.50;11.38;;;;;;;5.42;56.55;98792.00;4142775;28;20213;-80
2022/03/07 08:52:21;;;;;;;12.48;9.93;;;;;;;5.30;54.50;98801.06;4140674;28;20233;-81
2022/03/07 08:54:24;;;;;;;16.33;11.40;;;;;;;5.06;54.62;98815.75;4158890;28;20199;-82
2022/03/07 08:56:27;;;;;;;15.63;11.30;;;;;;;4.93;55.56;98797.28;4139388;28;20201;-81
2022/03/07 08:58:32;;;;;;;14.60;11.00;;;;;;;4.97;54.79;98809.16;4139316;28;20229;-80
2022/03/07 09:00:35;;;;;;;17.02;11.57;;;;;;;5.05;54.40;98808.91;4141383;28;20222;-80
2022/03/07 09:02:38;;;;;;;14.80;10.90;;;;;;;5.01;54.38;98808.16;4140997;28;20213;-81
2022/03/07 09:04:42;;;;;;;14.25;10.45;;;;;;;5.18;54.29;98813.59;4140922;28;20204;-81
2022/03/07 09:06:45;;;;;;;12.95;10.52;;;;;;;5.19;54.93;98810.94;4143955;28;20272;-79
2022/03/07 09:08:48;;;;;;;15.27;10.05;;;;;;;5.28;55.05;98794.28;4144557;28;20216;-79
2022/03/07 09:10:56;;;;;;;13.05;9.82;;;;;;;5.55;54.03;98795.81;4142105;28;20204;-79
2022/03/07 09:13:00;;;;;;;50.13;23.90;;;;;;;5.60;54.90;98796.50;4146865;28;20214;-79
2022/03/07 09:15:06;;;;;;;11.20;9.45;;;;;;;5.67;53.33;98796.22;4154549;28;20205;-79
2022/03/07 09:17:09;;;;;;;16.70;11.65;;;;;;;5.73;52.76;98793.41;4156743;28;20228;-78
2022/03/07 09:19:12;;;;;;;71.18;36.70;;;;;;;5.32;51.59;98804.44;4159759;28;20229;-78
2022/03/07 09:21:15;;;;;;;17.52;12.80;;;;;;;5.45;52.15;98810.00;4124627;28;20219;-80
2022/03/07 09:23:18;;;;;;;14.07;11.02;;;;;;;5.41;51.62;98803.25;4141238;28;20216;-81
2022/03/07 09:25:21;;;;;;;15.95;12.02;;;;;;;5.47;51.82;98801.28;4139201;28;20209;-80
2022/03/07 09:27:25;;;;;;;18.45;12.25;;;;;;;5.69;52.93;98807.34;4128614;28;20222;-82
2022/03/07 09:29:28;;;;;;;54.22;27.98;;;;;;;5.73;52.07;98798.59;4124564;28;20204;-82
2022/03/07 09:31:38;;;;;;;21.05;13.88;;;;;;;5.74;52.13;98800.28;4139567;28;20196;-81
2022/03/07 09:33:41;;;;;;;16.48;10.48;;;;;;;5.97;52.89;98816.63;4141383;28;20297;-83
2022/03/07 09:35:44;;;;;;;18.95;12.00;;;;;;;6.19;50.76;98810.56;4138704;28;20284;-82
2022/03/07 09:37:47;;;;;;;12.93;10.30;;;;;;;6.27;50.61;98813.69;4140531;28;20267;-82
2022/03/07 09:39:50;;;;;;;20.02;13.43;;;;;;;6.26;50.60;98821.50;4125305;28;20232;-82